sensor_id;sensor_type;location;lat;lon;timestamp;pressure;altitude;pressure_sealevel;temperature;humidity
84496;BME280;74855;51.206;17.408;2024-02-21T00:01:42;100468.19;;;6.12;78.78
84496;BME280;74855;51.206;17.408;2024-02-21T00:06:37;100464.22;;;6.16;78.67
84496;BME280;74855;51.206;17.408;2024-02-21T00:11:35;100459.81;;;6.16;78.61
84496;BME280;74855;51.206;17.408;2024-02-21T00:16:30;100468.16;;;6.20;78.61
84496;BME280;74855;51.206;17.408;2024-02-21T00:21:26;100458.31;;;6.22;78.72
84496;BME280;74855;51.206;17.408;2024-02-21T00:26:22;100458.78;;;6.25;78.66
84496;BME280;74855;51.206;17.408;2024-02-21T00:31:20;100457.97;;;6.25;78.55
84496;BME280;74855;51.206;17.408;2024-02-21T00:36:16;100451.91;;;6.24;78.43
84496;BME280;74855;51.206;17.408;2024-02-21T00:41:12;100452.56;;;6.26;78.53
84496;BME280;74855;51.206;17.408;2024-02-21T00:46:08;100444.34;;;6.29;78.38
84496;BME280;74855;51.206;17.408;2024-02-21T00:51:05;100445.81;;;6.32;78.30
84496;BME280;74855;51.206;17.408;2024-02-21T00:56:01;100426.84;;;6.30;78.20
84496;BME280;74855;51.206;17.408;2024-02-21T01:00:57;100437.31;;;6.30;78.18
84496;BME280;74855;51.206;17.408;2024-02-21T01:05:53;100430.28;;;6.30;78.25
84496;BME280;74855;51.206;17.408;2024-02-21T01:10:50;100422.25;;;6.32;78.27
84496;BME280;74855;51.206;17.408;2024-02-21T01:15:46;100418.44;;;6.34;78.27
84496;BME280;74855;51.206;17.408;2024-02-21T01:20:41;100405.56;;;6.33;78.56
84496;BME280;74855;51.206;17.408;2024-02-21T01:25:39;100401.31;;;6.32;78.46
84496;BME280;74855;51.206;17.408;2024-02-21T01:30:36;100397.69;;;6.33;78.51
84496;BME280;74855;51.206;17.408;2024-02-21T01:35:34;100395.25;;;6.31;78.46
84496;BME280;74855;51.206;17.408;2024-02-21T01:40:29;100389.91;;;6.25;78.27
84496;BME280;74855;51.206;17.408;2024-02-21T01:45:25;100394.31;;;6.24;78.68
84496;BME280;74855;51.206;17.408;2024-02-21T01:50:23;100392.97;;;6.28;78.69
84496;BME280;74855;51.206;17.408;2024-02-21T01:55:19;100383.16;;;6.30;78.30
84496;BME280;74855;51.206;17.408;2024-02-21T02:00:16;100380.97;;;6.34;78.31
84496;BME280;74855;51.206;17.408;2024-02-21T02:05:13;100379.00;;;6.36;78.23
84496;BME280;74855;51.206;17.408;2024-02-21T02:10:10;100374.25;;;6.39;78.10
84496;BME280;74855;51.206;17.408;2024-02-21T02:15:07;100365.19;;;6.42;78.28
84496;BME280;74855;51.206;17.408;2024-02-21T02:20:03;100366.50;;;6.46;78.27
84496;BME280;74855;51.206;17.408;2024-02-21T02:25:01;100362.50;;;6.50;78.25
84496;BME280;74855;51.206;17.408;2024-02-21T02:29:57;100358.75;;;6.53;78.28
84496;BME280;74855;51.206;17.408;2024-02-21T02:34:54;100347.44;;;6.52;78.51
84496;BME280;74855;51.206;17.408;2024-02-21T02:39:50;100345.34;;;6.48;78.54
84496;BME280;74855;51.206;17.408;2024-02-21T02:44:48;100341.09;;;6.47;78.92
84496;BME280;74855;51.206;17.408;2024-02-21T02:49:45;100332.78;;;6.43;79.39
84496;BME280;74855;51.206;17.408;2024-02-21T02:54:41;100322.31;;;6.43;79.41
84496;BME280;74855;51.206;17.408;2024-02-21T02:59:37;100322.97;;;6.45;79.48
84496;BME280;74855;51.206;17.408;2024-02-21T03:04:34;100329.00;;;6.46;79.37
84496;BME280;74855;51.206;17.408;2024-02-21T03:09:29;100329.28;;;6.51;79.51
84496;BME280;74855;51.206;17.408;2024-02-21T03:14:25;100330.72;;;6.53;79.60
84496;BME280;74855;51.206;17.408;2024-02-21T03:19:21;100325.38;;;6.47;79.70
84496;BME280;74855;51.206;17.408;2024-02-21T03:24:20;100327.28;;;6.38;79.39
84496;BME280;74855;51.206;17.408;2024-02-21T03:29:16;100323.75;;;6.31;79.80
84496;BME280;74855;51.206;17.408;2024-02-21T03:34:12;100319.22;;;6.25;79.88
84496;BME280;74855;51.206;17.408;2024-02-21T03:39:08;100318.28;;;6.18;80.29
84496;BME280;74855;51.206;17.408;2024-02-21T03:44:05;100305.28;;;6.10;80.47
84496;BME280;74855;51.206;17.408;2024-02-21T03:49:02;100315.19;;;5.99;80.34
84496;BME280;74855;51.206;17.408;2024-02-21T03:53:58;100306.13;;;5.87;80.55
84496;BME280;74855;51.206;17.408;2024-02-21T03:58:53;100303.06;;;5.76;80.63
84496;BME280;74855;51.206;17.408;2024-02-21T04:03:51;100302.31;;;5.67;80.63
84496;BME280;74855;51.206;17.408;2024-02-21T04:08:46;100298.06;;;5.66;81.24
84496;BME280;74855;51.206;17.408;2024-02-21T04:13:42;100296.09;;;5.68;80.95
84496;BME280;74855;51.206;17.408;2024-02-21T04:18:39;100289.88;;;5.69;81.55
84496;BME280;74855;51.206;17.408;2024-02-21T04:23:36;100280.41;;;5.68;81.48
84496;BME280;74855;51.206;17.408;2024-02-21T04:28:32;100283.72;;;5.62;80.96
84496;BME280;74855;51.206;17.408;2024-02-21T04:33:28;100270.31;;;5.57;81.47
84496;BME280;74855;51.206;17.408;2024-02-21T04:38:23;100267.09;;;5.55;81.18
84496;BME280;74855;51.206;17.408;2024-02-21T04:43:21;100265.78;;;5.51;81.29
84496;BME280;74855;51.206;17.408;2024-02-21T04:48:16;100267.13;;;5.47;81.21
84496;BME280;74855;51.206;17.408;2024-02-21T04:53:12;100258.66;;;5.45;81.46
84496;BME280;74855;51.206;17.408;2024-02-21T04:58:08;100258.66;;;5.45;81.42
84496;BME280;74855;51.206;17.408;2024-02-21T05:03:08;100253.09;;;5.48;81.79
84496;BME280;74855;51.206;17.408;2024-02-21T05:08:04;100251.28;;;5.48;81.79
84496;BME280;74855;51.206;17.408;2024-02-21T05:13:00;100246.06;;;5.48;81.94
84496;BME280;74855;51.206;17.408;2024-02-21T05:17:55;100245.88;;;5.50;81.71
84496;BME280;74855;51.206;17.408;2024-02-21T05:22:53;100247.31;;;5.52;81.36
84496;BME280;74855;51.206;17.408;2024-02-21T05:27:51;100246.34;;;5.53;81.56
84496;BME280;74855;51.206;17.408;2024-02-21T05:32:46;100244.53;;;5.54;81.76
84496;BME280;74855;51.206;17.408;2024-02-21T05:37:42;100238.31;;;5.55;81.82
84496;BME280;74855;51.206;17.408;2024-02-21T05:42:39;100245.19;;;5.56;81.60
84496;BME280;74855;51.206;17.408;2024-02-21T05:47:35;100237.97;;;5.58;81.58
84496;BME280;74855;51.206;17.408;2024-02-21T05:52:32;100228.31;;;5.58;81.53
84496;BME280;74855;51.206;17.408;2024-02-21T05:57:28;100233.22;;;5.61;81.54
84496;BME280;74855;51.206;17.408;2024-02-21T06:02:25;100221.56;;;5.64;81.37
84496;BME280;74855;51.206;17.408;2024-02-21T06:07:21;100220.59;;;5.65;81.23
84496;BME280;74855;51.206;17.408;2024-02-21T06:12:16;100220.84;;;5.70;81.24
84496;BME280;74855;51.206;17.408;2024-02-21T06:17:12;100226.56;;;5.74;80.75
84496;BME280;74855;51.206;17.408;2024-02-21T06:22:09;100222.78;;;5.76;81.10
84496;BME280;74855;51.206;17.408;2024-02-21T06:27:05;100228.09;;;5.83;80.78
84496;BME280;74855;51.206;17.408;2024-02-21T06:32:01;100220.34;;;5.97;80.45
84496;BME280;74855;51.206;17.408;2024-02-21T06:36:57;100221.28;;;6.19;80.51
84496;BME280;74855;51.206;17.408;2024-02-21T06:41:54;100219.84;;;6.31;80.09
84496;BME280;74855;51.206;17.408;2024-02-21T06:46:50;100215.59;;;6.30;79.78
84496;BME280;74855;51.206;17.408;2024-02-21T06:51:46;100221.25;;;6.34;79.89
84496;BME280;74855;51.206;17.408;2024-02-21T06:56:43;100229.13;;;6.34;79.53
84496;BME280;74855;51.206;17.408;2024-02-21T07:01:40;100219.94;;;6.38;79.46
84496;BME280;74855;51.206;17.408;2024-02-21T07:06:36;100224.44;;;6.44;79.49
84496;BME280;74855;51.206;17.408;2024-02-21T07:11:31;100211.44;;;6.51;79.16
84496;BME280;74855;51.206;17.408;2024-02-21T07:16:27;100207.19;;;6.64;78.98
84496;BME280;74855;51.206;17.408;2024-02-21T07:21:24;100200.28;;;6.78;78.92
84496;BME280;74855;51.206;17.408;2024-02-21T07:26:20;100203.06;;;6.91;78.25
84496;BME280;74855;51.206;17.408;2024-02-21T07:31:16;100192.59;;;7.12;77.83
84496;BME280;74855;51.206;17.408;2024-02-21T07:36:12;100196.81;;;7.28;77.20
84496;BME280;74855;51.206;17.408;2024-02-21T07:41:09;100188.78;;;7.36;76.76
84496;BME280;74855;51.206;17.408;2024-02-21T07:46:05;100182.91;;;7.55;76.65
84496;BME280;74855;51.206;17.408;2024-02-21T07:51:00;100189.75;;;7.78;76.20
84496;BME280;74855;51.206;17.408;2024-02-21T07:55:56;100184.59;;;7.91;75.38
84496;BME280;74855;51.206;17.408;2024-02-21T08:00:53;100197.78;;;7.97;75.33
84496;BME280;74855;51.206;17.408;2024-02-21T08:05:49;100188.91;;;7.98;74.90
84496;BME280;74855;51.206;17.408;2024-02-21T08:10:45;100184.97;;;7.88;74.50
84496;BME280;74855;51.206;17.408;2024-02-21T08:15:41;100183.44;;;7.93;74.52
84496;BME280;74855;51.206;17.408;2024-02-21T08:20:39;100180.50;;;8.10;74.56
84496;BME280;74855;51.206;17.408;2024-02-21T08:25:35;100174.91;;;8.19;74.43
84496;BME280;74855;51.206;17.408;2024-02-21T08:30:31;100170.91;;;8.30;73.87
84496;BME280;74855;51.206;17.408;2024-02-21T08:35:27;100169.66;;;8.26;74.15
84496;BME280;74855;51.206;17.408;2024-02-21T08:40:25;100163.63;;;8.25;74.48
84496;BME280;74855;51.206;17.408;2024-02-21T08:45:20;100162.41;;;8.28;74.71
84496;BME280;74855;51.206;17.408;2024-02-21T08:50:16;100159.06;;;8.40;74.54
84496;BME280;74855;51.206;17.408;2024-02-21T08:55:12;100162.00;;;8.65;74.75
84496;BME280;74855;51.206;17.408;2024-02-21T09:00:10;100159.66;;;8.90;74.41
84496;BME280;74855;51.206;17.408;2024-02-21T09:05:07;100168.63;;;9.29;74.59
84496;BME280;74855;51.206;17.408;2024-02-21T09:10:04;100164.00;;;9.70;73.43
84496;BME280;74855;51.206;17.408;2024-02-21T09:15:00;100155.22;;;10.16;72.43
84496;BME280;74855;51.206;17.408;2024-02-21T09:19:57;100150.47;;;10.44;71.05
84496;BME280;74855;51.206;17.408;2024-02-21T09:24:53;100155.00;;;10.30;71.07
84496;BME280;74855;51.206;17.408;2024-02-21T09:29:49;100153.78;;;10.13;71.43
84496;BME280;74855;51.206;17.408;2024-02-21T09:34:45;100145.53;;;9.96;71.65
84496;BME280;74855;51.206;17.408;2024-02-21T09:39:42;100150.81;;;9.77;72.46
84496;BME280;74855;51.206;17.408;2024-02-21T09:44:38;100148.19;;;9.57;73.19
84496;BME280;74855;51.206;17.408;2024-02-21T09:49:34;100143.56;;;9.46;73.00
84496;BME280;74855;51.206;17.408;2024-02-21T09:54:30;100145.38;;;9.52;73.13
84496;BME280;74855;51.206;17.408;2024-02-21T09:59:28;100151.03;;;9.49;73.35
84496;BME280;74855;51.206;17.408;2024-02-21T10:04:25;100142.13;;;9.43;73.11
84496;BME280;74855;51.206;17.408;2024-02-21T10:09:22;100149.41;;;9.41;73.04
84496;BME280;74855;51.206;17.408;2024-02-21T10:14:18;100151.84;;;9.36;73.08
84496;BME280;74855;51.206;17.408;2024-02-21T10:19:20;100147.56;;;9.29;73.58
84496;BME280;74855;51.206;17.408;2024-02-21T10:24:26;100136.47;;;9.40;73.59
84496;BME280;74855;51.206;17.408;2024-02-21T10:29:22;100142.13;;;9.37;73.57
84496;BME280;74855;51.206;17.408;2024-02-21T10:34:21;100135.03;;;9.24;73.83
84496;BME280;74855;51.206;17.408;2024-02-21T10:39:18;100139.69;;;9.22;74.08
84496;BME280;74855;51.206;17.408;2024-02-21T10:44:16;100126.50;;;9.15;74.71
84496;BME280;74855;51.206;17.408;2024-02-21T10:49:22;100130.75;;;9.03;74.42
84496;BME280;74855;51.206;17.408;2024-02-21T10:59:39;100110.50;;;8.97;74.75
84496;BME280;74855;51.206;17.408;2024-02-21T11:04:37;100095.56;;;8.98;74.79
84496;BME280;74855;51.206;17.408;2024-02-21T11:09:34;100079.78;;;9.11;74.65
84496;BME280;74855;51.206;17.408;2024-02-21T11:14:30;100081.81;;;9.15;74.39
84496;BME280;74855;51.206;17.408;2024-02-21T11:19:27;100080.22;;;9.14;74.55
84496;BME280;74855;51.206;17.408;2024-02-21T11:24:29;100083.63;;;8.95;75.30
84496;BME280;74855;51.206;17.408;2024-02-21T11:29:31;100079.38;;;8.94;74.78
84496;BME280;74855;51.206;17.408;2024-02-21T11:34:27;100065.81;;;8.91;74.79
84496;BME280;74855;51.206;17.408;2024-02-21T11:39:24;100060.34;;;8.92;74.67
84496;BME280;74855;51.206;17.408;2024-02-21T11:44:22;100056.91;;;8.92;74.46
84496;BME280;74855;51.206;17.408;2024-02-21T11:49:17;100047.63;;;9.09;75.04
84496;BME280;74855;51.206;17.408;2024-02-21T11:54:14;100045.59;;;9.24;74.17
84496;BME280;74855;51.206;17.408;2024-02-21T11:59:10;100040.53;;;9.36;74.01
84496;BME280;74855;51.206;17.408;2024-02-21T12:04:08;100033.59;;;9.54;73.82
84496;BME280;74855;51.206;17.408;2024-02-21T12:09:10;100024.28;;;9.72;73.57
84496;BME280;74855;51.206;17.408;2024-02-21T12:14:10;100016.50;;;9.90;71.84
84496;BME280;74855;51.206;17.408;2024-02-21T12:19:08;100005.75;;;9.98;71.58
84496;BME280;74855;51.206;17.408;2024-02-21T12:24:12;100002.78;;;10.26;71.02
84496;BME280;74855;51.206;17.408;2024-02-21T12:29:08;99994.88;;;10.26;70.71
84496;BME280;74855;51.206;17.408;2024-02-21T12:34:04;99981.19;;;10.17;70.38
84496;BME280;74855;51.206;17.408;2024-02-21T12:39:02;99979.34;;;10.11;71.06
84496;BME280;74855;51.206;17.408;2024-02-21T12:43:58;99974.97;;;9.98;70.45
84496;BME280;74855;51.206;17.408;2024-02-21T12:48:55;99955.75;;;9.91;70.87
84496;BME280;74855;51.206;17.408;2024-02-21T12:53:51;99940.13;;;9.96;70.99
84496;BME280;74855;51.206;17.408;2024-02-21T12:58:48;99943.91;;;10.07;71.40
84496;BME280;74855;51.206;17.408;2024-02-21T13:03:44;99945.94;;;10.05;70.85
84496;BME280;74855;51.206;17.408;2024-02-21T13:08:40;99934.03;;;9.96;70.73
84496;BME280;74855;51.206;17.408;2024-02-21T13:13:36;99928.63;;;9.84;70.32
84496;BME280;74855;51.206;17.408;2024-02-21T13:18:34;99922.16;;;9.80;71.39
84496;BME280;74855;51.206;17.408;2024-02-21T13:23:30;99921.38;;;9.73;71.18
84496;BME280;74855;51.206;17.408;2024-02-21T13:28:26;99925.06;;;9.72;71.61
84496;BME280;74855;51.206;17.408;2024-02-21T13:33:21;99905.59;;;9.66;71.11
84496;BME280;74855;51.206;17.408;2024-02-21T13:38:19;99905.44;;;9.61;71.86
84496;BME280;74855;51.206;17.408;2024-02-21T13:43:14;99901.41;;;9.59;71.08
84496;BME280;74855;51.206;17.408;2024-02-21T13:48:10;99900.56;;;9.65;71.38
84496;BME280;74855;51.206;17.408;2024-02-21T13:53:06;99884.94;;;9.70;71.04
84496;BME280;74855;51.206;17.408;2024-02-21T13:58:03;99876.63;;;9.73;71.71
84496;BME280;74855;51.206;17.408;2024-02-21T14:02:59;99870.53;;;9.79;71.38
84496;BME280;74855;51.206;17.408;2024-02-21T14:07:55;99868.47;;;9.81;71.80
84496;BME280;74855;51.206;17.408;2024-02-21T14:12:51;99852.31;;;9.78;71.32
84496;BME280;74855;51.206;17.408;2024-02-21T14:17:48;99855.31;;;9.81;70.93
84496;BME280;74855;51.206;17.408;2024-02-21T14:22:44;99855.13;;;9.83;70.99
84496;BME280;74855;51.206;17.408;2024-02-21T14:27:39;99846.38;;;9.89;71.20
84496;BME280;74855;51.206;17.408;2024-02-21T14:32:35;99845.69;;;10.00;70.78
84496;BME280;74855;51.206;17.408;2024-02-21T14:37:32;99846.84;;;10.11;70.85
84496;BME280;74855;51.206;17.408;2024-02-21T14:42:28;99833.44;;;10.12;69.93
84496;BME280;74855;51.206;17.408;2024-02-21T14:47:24;99827.53;;;10.23;70.14
84496;BME280;74855;51.206;17.408;2024-02-21T14:52:20;99817.13;;;10.28;69.68
84496;BME280;74855;51.206;17.408;2024-02-21T14:57:17;99809.97;;;10.35;68.71
84496;BME280;74855;51.206;17.408;2024-02-21T15:02:12;99813.25;;;10.56;68.43
84496;BME280;74855;51.206;17.408;2024-02-21T15:07:08;99824.00;;;10.54;68.44
84496;BME280;74855;51.206;17.408;2024-02-21T15:12:05;99819.28;;;10.38;67.93
84496;BME280;74855;51.206;17.408;2024-02-21T15:17:02;99821.53;;;10.34;69.13
84496;BME280;74855;51.206;17.408;2024-02-21T15:21:58;99815.94;;;10.24;68.83
84496;BME280;74855;51.206;17.408;2024-02-21T15:26:54;99804.00;;;10.22;68.81
84496;BME280;74855;51.206;17.408;2024-02-21T15:31:50;99809.13;;;10.17;69.19
84496;BME280;74855;51.206;17.408;2024-02-21T15:36:47;99801.88;;;10.05;69.27
84496;BME280;74855;51.206;17.408;2024-02-21T15:41:43;99792.84;;;9.95;69.56
84496;BME280;74855;51.206;17.408;2024-02-21T15:46:39;99784.22;;;9.81;69.43
84496;BME280;74855;51.206;17.408;2024-02-21T15:51:35;99788.63;;;9.62;70.43
84496;BME280;74855;51.206;17.408;2024-02-21T15:56:32;99789.34;;;9.45;70.68
84496;BME280;74855;51.206;17.408;2024-02-21T16:01:28;99783.94;;;9.33;71.41
84496;BME280;74855;51.206;17.408;2024-02-21T16:06:23;99770.44;;;9.16;71.65
84496;BME280;74855;51.206;17.408;2024-02-21T16:11:19;99769.28;;;9.06;71.74
84496;BME280;74855;51.206;17.408;2024-02-21T16:16:16;99768.31;;;9.00;71.86
84496;BME280;74855;51.206;17.408;2024-02-21T16:21:12;99764.69;;;8.95;72.10
84496;BME280;74855;51.206;17.408;2024-02-21T16:26:08;99770.56;;;8.90;72.33
84496;BME280;74855;51.206;17.408;2024-02-21T16:31:04;99763.72;;;8.89;72.70
84496;BME280;74855;51.206;17.408;2024-02-21T16:36:01;99768.97;;;8.89;72.26
84496;BME280;74855;51.206;17.408;2024-02-21T16:40:57;99759.47;;;8.81;72.70
84496;BME280;74855;51.206;17.408;2024-02-21T16:45:53;99764.53;;;8.83;71.99
84496;BME280;74855;51.206;17.408;2024-02-21T16:50:49;99759.28;;;8.83;72.22
84496;BME280;74855;51.206;17.408;2024-02-21T16:55:46;99758.25;;;8.84;72.27
84496;BME280;74855;51.206;17.408;2024-02-21T17:00:42;99759.28;;;8.83;72.94
84496;BME280;74855;51.206;17.408;2024-02-21T17:05:38;99755.22;;;8.80;72.69
84496;BME280;74855;51.206;17.408;2024-02-21T17:10:33;99756.44;;;8.78;72.73
84496;BME280;74855;51.206;17.408;2024-02-21T17:15:30;99748.56;;;8.78;72.56
84496;BME280;74855;51.206;17.408;2024-02-21T17:20:26;99745.13;;;8.77;72.72
84496;BME280;74855;51.206;17.408;2024-02-21T17:25:24;99742.91;;;8.81;72.25
84496;BME280;74855;51.206;17.408;2024-02-21T17:30:20;99730.13;;;8.84;71.99
84496;BME280;74855;51.206;17.408;2024-02-21T17:35:17;99723.50;;;8.82;72.60
84496;BME280;74855;51.206;17.408;2024-02-21T17:40:13;99720.47;;;8.78;72.05
84496;BME280;74855;51.206;17.408;2024-02-21T17:45:09;99710.81;;;8.66;72.56
84496;BME280;74855;51.206;17.408;2024-02-21T17:50:06;99705.19;;;8.56;72.13
84496;BME280;74855;51.206;17.408;2024-02-21T17:55:05;99693.94;;;8.35;72.50
84496;BME280;74855;51.206;17.408;2024-02-21T18:00:01;99699.19;;;8.16;73.03
84496;BME280;74855;51.206;17.408;2024-02-21T18:04:57;99679.22;;;7.95;73.16
84496;BME280;74855;51.206;17.408;2024-02-21T18:09:53;99685.53;;;7.74;73.53
84496;BME280;74855;51.206;17.408;2024-02-21T18:14:50;99680.28;;;7.54;73.60
84496;BME280;74855;51.206;17.408;2024-02-21T18:19:45;99670.97;;;7.39;74.07
84496;BME280;74855;51.206;17.408;2024-02-21T18:24:42;99664.31;;;7.23;74.39
84496;BME280;74855;51.206;17.408;2024-02-21T18:29:38;99661.69;;;7.10;74.56
84496;BME280;74855;51.206;17.408;2024-02-21T18:34:35;99652.75;;;6.98;74.67
84496;BME280;74855;51.206;17.408;2024-02-21T18:39:31;99642.84;;;6.87;74.83
84496;BME280;74855;51.206;17.408;2024-02-21T18:44:27;99646.88;;;6.76;75.27
84496;BME280;74855;51.206;17.408;2024-02-21T18:49:22;99644.22;;;6.63;75.54
84496;BME280;74855;51.206;17.408;2024-02-21T18:54:20;99639.53;;;6.52;75.50
84496;BME280;74855;51.206;17.408;2024-02-21T18:59:16;99637.69;;;6.39;75.78
84496;BME280;74855;51.206;17.408;2024-02-21T19:04:11;99630.97;;;6.30;76.48
84496;BME280;74855;51.206;17.408;2024-02-21T19:09:07;99624.72;;;6.24;76.57
84496;BME280;74855;51.206;17.408;2024-02-21T19:14:04;99628.13;;;6.18;76.54
84496;BME280;74855;51.206;17.408;2024-02-21T19:19:00;99616.00;;;6.11;76.61
84496;BME280;74855;51.206;17.408;2024-02-21T19:23:56;99609.31;;;6.01;76.26
84496;BME280;74855;51.206;17.408;2024-02-21T19:28:52;99610.28;;;5.94;76.48
84496;BME280;74855;51.206;17.408;2024-02-21T19:33:49;99598.09;;;5.80;76.34
84496;BME280;74855;51.206;17.408;2024-02-21T19:38:45;99590.09;;;5.60;76.51
84496;BME280;74855;51.206;17.408;2024-02-21T19:43:40;99576.94;;;5.47;77.10
84496;BME280;74855;51.206;17.408;2024-02-21T19:48:36;99579.50;;;5.40;77.12
84496;BME280;74855;51.206;17.408;2024-02-21T19:53:33;99584.06;;;5.32;77.17
84496;BME280;74855;51.206;17.408;2024-02-21T19:58:29;99577.19;;;5.24;76.98
84496;BME280;74855;51.206;17.408;2024-02-21T20:03:25;99567.28;;;5.19;77.95
84496;BME280;74855;51.206;17.408;2024-02-21T20:08:21;99557.81;;;5.12;77.59
84496;BME280;74855;51.206;17.408;2024-02-21T20:13:19;99553.13;;;5.07;77.53
84496;BME280;74855;51.206;17.408;2024-02-21T20:18:16;99539.81;;;5.02;77.49
84496;BME280;74855;51.206;17.408;2024-02-21T20:23:12;99528.97;;;4.99;77.93
84496;BME280;74855;51.206;17.408;2024-02-21T20:28:08;99525.91;;;4.95;77.95
84496;BME280;74855;51.206;17.408;2024-02-21T20:33:05;99505.09;;;4.80;77.30
84496;BME280;74855;51.206;17.408;2024-02-21T20:38:01;99506.34;;;4.63;77.03
84496;BME280;74855;51.206;17.408;2024-02-21T20:42:57;99500.13;;;4.43;77.19
84496;BME280;74855;51.206;17.408;2024-02-21T20:47:52;99481.13;;;4.28;77.05
84496;BME280;74855;51.206;17.408;2024-02-21T20:52:50;99474.16;;;4.14;77.89
84496;BME280;74855;51.206;17.408;2024-02-21T20:57:45;99477.94;;;4.11;77.46
84496;BME280;74855;51.206;17.408;2024-02-21T21:02:41;99458.44;;;4.07;77.52
84496;BME280;74855;51.206;17.408;2024-02-21T21:07:37;99444.41;;;4.08;78.69
84496;BME280;74855;51.206;17.408;2024-02-21T21:12:34;99434.38;;;4.12;78.09
84496;BME280;74855;51.206;17.408;2024-02-21T21:17:30;99433.22;;;4.14;78.74
84496;BME280;74855;51.206;17.408;2024-02-21T21:22:26;99414.78;;;4.16;78.39
84496;BME280;74855;51.206;17.408;2024-02-21T21:27:21;99409.34;;;4.17;78.48
84496;BME280;74855;51.206;17.408;2024-02-21T21:32:19;99389.69;;;4.15;78.88
84496;BME280;74855;51.206;17.408;2024-02-21T21:37:15;99379.19;;;4.08;78.13
84496;BME280;74855;51.206;17.408;2024-02-21T21:42:11;99369.88;;;3.99;78.77
84496;BME280;74855;51.206;17.408;2024-02-21T21:47:08;99372.59;;;3.91;78.57
84496;BME280;74855;51.206;17.408;2024-02-21T21:52:11;99377.56;;;3.86;78.94
84496;BME280;74855;51.206;17.408;2024-02-21T21:57:07;99363.28;;;3.82;78.21
84496;BME280;74855;51.206;17.408;2024-02-21T22:02:03;99362.00;;;3.71;79.01
84496;BME280;74855;51.206;17.408;2024-02-21T22:06:59;99356.88;;;3.63;78.50
84496;BME280;74855;51.206;17.408;2024-02-21T22:11:59;99346.41;;;3.56;79.50
84496;BME280;74855;51.206;17.408;2024-02-21T22:16:55;99343.53;;;3.51;79.04
84496;BME280;74855;51.206;17.408;2024-02-21T22:21:51;99328.66;;;3.45;78.66
84496;BME280;74855;51.206;17.408;2024-02-21T22:26:47;99331.78;;;3.41;79.18
84496;BME280;74855;51.206;17.408;2024-02-21T22:31:44;99305.94;;;3.39;79.23
84496;BME280;74855;51.206;17.408;2024-02-21T22:36:40;99301.50;;;3.40;79.57
84496;BME280;74855;51.206;17.408;2024-02-21T22:41:36;99301.97;;;3.43;79.75
84496;BME280;74855;51.206;17.408;2024-02-21T22:46:31;99300.81;;;3.52;80.57
84496;BME280;74855;51.206;17.408;2024-02-21T22:51:28;99292.34;;;3.65;80.20
84496;BME280;74855;51.206;17.408;2024-02-21T22:56:24;99301.28;;;3.77;80.34
84496;BME280;74855;51.206;17.408;2024-02-21T23:01:19;99291.00;;;3.90;79.93
84496;BME280;74855;51.206;17.408;2024-02-21T23:06:15;99279.66;;;4.04;80.47
84496;BME280;74855;51.206;17.408;2024-02-21T23:11:12;99278.38;;;4.22;79.91
84496;BME280;74855;51.206;17.408;2024-02-21T23:16:09;99272.81;;;4.31;79.89
84496;BME280;74855;51.206;17.408;2024-02-21T23:21:09;99267.88;;;4.43;80.43
84496;BME280;74855;51.206;17.408;2024-02-21T23:26:05;99254.09;;;4.56;80.06
84496;BME280;74855;51.206;17.408;2024-02-21T23:31:03;99256.78;;;4.69;79.70
84496;BME280;74855;51.206;17.408;2024-02-21T23:35:58;99245.97;;;4.78;79.74
84496;BME280;74855;51.206;17.408;2024-02-21T23:40:55;99233.75;;;4.86;79.98
84496;BME280;74855;51.206;17.408;2024-02-21T23:45:51;99230.97;;;4.94;79.77
84496;BME280;74855;51.206;17.408;2024-02-21T23:50:50;99213.50;;;5.01;79.45
84496;BME280;74855;51.206;17.408;2024-02-21T23:55:46;99213.72;;;5.06;78.93
